Time;durP1;ratioP1;P1;durP2;ratioP2;P2;SDS_P1;SDS_P2;PMS_P1;PMS_P2;Temp;Humidity;BMP_temperature;BMP_pressure;BME280_temperature;BME280_humidity;BME280_pressure;Samples;Min_cycle;Max_cycle;Signal;HPM_P1;HPM_P2
2021/05/13 00:00:27;;;;;;;10.18;7.95;;;14.70;87.30;;;;;;5072792;28;20020;-73
2021/05/13 00:02:53;;;;;;;16.67;9.38;;;14.70;87.30;;;;;;5072736;28;20163;-73
2021/05/13 00:05:18;;;;;;;11.35;9.23;;;14.70;86.80;;;;;;5071513;28;20033;-73
2021/05/13 00:07:44;;;;;;;14.82;8.73;;;14.70;86.80;;;;;;5071442;28;20107;-73
2021/05/13 00:10:23;;;;;;;11.20;8.18;;;14.70;87.00;;;;;;5072791;28;20037;-73
2021/05/13 00:12:52;;;;;;;11.13;8.13;;;14.60;88.00;;;;;;5071435;28;20048;-73
2021/05/13 00:15:35;;;;;;;14.70;8.63;;;14.60;88.00;;;;;;5072642;28;20017;-73
2021/05/13 00:18:02;;;;;;;13.93;8.60;;;14.50;88.90;;;;;;5072698;28;20070;-73
2021/05/13 00:20:33;;;;;;;13.93;9.10;;;14.40;89.50;;;;;;5072600;28;20028;-73
2021/05/13 00:22:59;;;;;;;14.50;8.60;;;14.30;90.20;;;;;;5072723;28;20388;-73
2021/05/13 00:25:27;;;;;;;14.15;9.70;;;14.30;91.00;;;;;;5072518;28;20096;-73
2021/05/13 00:27:53;;;;;;;12.50;9.13;;;14.20;91.10;;;;;;5072580;28;20493;-73
2021/05/13 00:30:20;;;;;;;10.70;8.80;;;14.20;90.70;;;;;;5072507;28;20401;-73
2021/05/13 00:32:46;;;;;;;14.15;8.55;;;14.20;91.60;;;;;;5072459;28;20028;-73
2021/05/13 00:35:14;;;;;;;12.80;8.35;;;14.20;91.90;;;;;;5071212;28;20020;-73
2021/05/13 00:37:41;;;;;;;13.73;10.18;;;14.10;91.70;;;;;;5072456;28;20033;-73
2021/05/13 00:40:09;;;;;;;13.00;8.82;;;14.00;92.60;;;;;;5072451;28;20025;-73
2021/05/13 00:42:35;;;;;;;11.50;8.25;;;13.80;93.40;;;;;;5071178;28;20386;-73
2021/05/13 00:45:01;;;;;;;10.32;8.55;;;13.70;95.90;;;;;;5072491;28;20032;-74
2021/05/13 00:47:28;;;;;;;13.38;8.13;;;13.60;95.50;;;;;;5072296;28;20063;-73
2021/05/13 00:49:54;;;;;;;13.35;8.57;;;13.50;97.30;;;;;;5071070;28;20036;-74
2021/05/13 00:52:21;;;;;;;13.00;9.05;;;13.40;98.70;;;;;;5072339;28;20021;-73
2021/05/13 00:54:47;;;;;;;15.05;9.15;;;13.30;99.80;;;;;;5072421;28;20025;-73
2021/05/13 00:57:14;;;;;;;18.38;8.93;;;13.30;99.70;;;;;;5072257;28;20412;-73
2021/05/13 00:59:49;;;;;;;11.82;8.98;;;13.30;99.60;;;;;;5071027;28;20466;-73
2021/05/13 01:02:15;;;;;;;11.52;8.98;;;13.20;99.90;;;;;;5072213;28;20027;-73
2021/05/13 01:04:41;;;;;;;13.00;8.20;;;13.20;99.90;;;;;;5072264;28;20056;-73
2021/05/13 01:07:08;;;;;;;14.48;8.88;;;13.20;99.90;;;;;;5072417;28;20378;-73
2021/05/13 01:09:34;;;;;;;14.25;8.63;;;13.20;99.90;;;;;;5074424;28;20033;-73
2021/05/13 01:12:06;;;;;;;13.05;8.90;;;13.20;99.90;;;;;;5075686;28;20028;-72
2021/05/13 01:14:41;;;;;;;21.52;10.13;;;13.20;99.90;;;;;;5075690;28;20099;-73
2021/05/13 01:19:39;;;;;;;19.92;9.73;;;13.20;99.90;;;;;;5076034;28;20028;-73
2021/05/13 01:22:05;;;;;;;13.57;8.18;;;13.20;99.90;;;;;;5074220;28;20051;-73
2021/05/13 01:24:31;;;;;;;15.48;8.32;;;13.20;99.90;;;;;;5075484;28;20032;-73
2021/05/13 01:26:57;;;;;;;12.63;8.15;;;13.10;99.90;;;;;;5074142;28;20063;-73
2021/05/13 01:29:25;;;;;;;16.83;8.82;;;13.10;99.90;;;;;;5074109;28;20047;-74
2021/05/13 01:31:51;;;;;;;10.30;8.20;;;13.20;99.90;;;;;;5071854;28;20082;-73
2021/05/13 01:34:17;;;;;;;9.82;7.97;;;13.20;97.80;;;;;;5075134;28;20478;-73
2021/05/13 01:36:43;;;;;;;10.90;8.07;;;13.30;95.80;;;;;;5075212;28;20397;-74
2021/05/13 01:39:11;;;;;;;12.77;7.88;;;13.30;96.00;;;;;;5073752;28;20021;-73
2021/05/13 01:41:38;;;;;;;11.75;8.38;;;13.30;97.70;;;;;;5074006;28;20025;-73
2021/05/13 01:44:04;;;;;;;11.77;8.50;;;13.20;97.40;;;;;;5075125;28;20028;-73
2021/05/13 01:46:30;;;;;;;14.18;7.65;;;13.20;96.60;;;;;;5073300;28;20162;-73
2021/05/13 01:48:56;;;;;;;13.02;8.07;;;13.10;96.30;;;;;;5074320;28;20095;-73
2021/05/13 01:51:22;;;;;;;10.70;7.60;;;13.20;95.20;;;;;;5074938;28;20044;-73
2021/05/13 01:53:48;;;;;;;12.38;7.70;;;13.20;93.80;;;;;;5074900;28;20382;-73
2021/05/13 01:56:14;;;;;;;12.48;7.97;;;13.20;92.90;;;;;;5074891;28;20016;-73
2021/05/13 01:58:40;;;;;;;14.07;8.65;;;13.10;93.70;;;;;;5074858;28;20397;-73
2021/05/13 02:01:12;;;;;;;9.90;7.95;;;13.10;94.30;;;;;;5074860;28;20090;-74
2021/05/13 02:03:43;;;;;;;12.27;7.32;;;13.10;94.30;;;;;;5074840;28;20492;-73
2021/05/13 02:06:09;;;;;;;13.18;7.90;;;13.10;94.10;;;;;;5074696;28;20028;-72
2021/05/13 02:08:35;;;;;;;10.20;8.00;;;13.00;94.70;;;;;;5074598;28;20512;-73
2021/05/13 02:11:02;;;;;;;11.30;7.53;;;12.90;95.40;;;;;;5074583;28;20032;-73
2021/05/13 02:13:28;;;;;;;14.70;8.30;;;12.80;95.90;;;;;;5073228;28;20029;-73
2021/05/13 02:15:53;;;;;;;12.00;7.55;;;12.80;96.80;;;;;;5073307;28;20115;-74
2021/05/13 02:18:22;;;;;;;11.52;8.10;;;12.80;97.00;;;;;;5072911;28;20027;-73
2021/05/13 02:20:48;;;;;;;12.05;7.50;;;12.70;96.70;;;;;;5072383;28;20029;-73
2021/05/13 02:23:14;;;;;;;15.85;8.20;;;12.60;96.30;;;;;;5074331;28;20035;-73
2021/05/13 02:25:42;;;;;;;12.70;7.55;;;12.60;95.70;;;;;;5074359;28;20016;-73
2021/05/13 02:28:08;;;;;;;11.45;7.13;;;12.60;95.60;;;;;;5074242;28;20028;-73
2021/05/13 02:30:34;;;;;;;9.30;6.95;;;12.60;95.80;;;;;;5074217;28;20039;-73
2021/05/13 02:32:59;;;;;;;9.95;6.97;;;12.50;94.80;;;;;;5074229;28;20474;-73
2021/05/13 02:35:25;;;;;;;15.05;7.70;;;12.40;95.30;;;;;;5074102;28;20032;-74
2021/05/13 02:37:51;;;;;;;11.15;7.05;;;12.40;95.60;;;;;;5062332;28;20036;-73
2021/05/13 02:40:17;;;;;;;9.80;6.97;;;12.30;95.80;;;;;;5052848;28;20031;-73
2021/05/13 02:42:44;;;;;;;8.23;7.10;;;12.30;96.00;;;;;;5053996;28;20052;-73
2021/05/13 02:45:11;;;;;;;10.95;7.85;;;12.20;96.50;;;;;;5052708;28;20458;-73
2021/05/13 02:47:38;;;;;;;9.70;6.30;;;12.10;97.20;;;;;;5052642;28;20017;-73
2021/05/13 02:50:05;;;;;;;15.45;7.45;;;12.10;97.00;;;;;;5053828;28;20112;-73
2021/05/13 02:52:31;;;;;;;13.07;7.30;;;12.00;97.70;;;;;;5053789;28;20112;-73
2021/05/13 02:54:56;;;;;;;8.75;6.70;;;12.00;98.40;;;;;;5053889;28;20059;-74
2021/05/13 02:57:22;;;;;;;9.13;6.97;;;12.00;98.70;;;;;;5052459;28;20455;-73
2021/05/13 03:02:46;;;;;;;10.10;5.93;;;12.00;96.10;;;;;;5074614;28;20033;-73
2021/05/13 03:05:16;;;;;;;9.45;6.63;;;12.00;95.60;;;;;;5053782;28;20522;-73
2021/05/13 03:07:51;;;;;;;10.00;5.72;;;12.00;96.60;;;;;;5053533;28;20029;-73
2021/05/13 03:13:04;;;;;;;7.82;5.90;;;11.90;95.00;;;;;;5053147;28;20029;-73
2021/05/13 03:15:30;;;;;;;8.90;6.57;;;12.00;94.90;;;;;;5050605;28;20474;-73
2021/05/13 03:17:56;;;;;;;11.20;6.65;;;11.90;95.20;;;;;;5053330;28;20017;-73
2021/05/13 03:20:27;;;;;;;9.02;6.25;;;11.90;95.20;;;;;;5053324;28;20436;-73
2021/05/13 03:22:56;;;;;;;14.95;6.22;;;11.90;95.50;;;;;;5053264;28;20029;-72
2021/05/13 03:25:28;;;;;;;10.60;6.53;;;11.80;95.50;;;;;;5053254;28;20027;-73
2021/05/13 03:28:06;;;;;;;11.63;6.75;;;11.80;95.10;;;;;;5053203;28;20029;-73
2021/05/13 03:30:31;;;;;;;15.02;6.40;;;11.70;95.90;;;;;;5052811;28;20040;-73
2021/05/13 03:32:57;;;;;;;14.77;7.03;;;11.70;95.40;;;;;;5053095;28;20025;-73
2021/05/13 03:35:23;;;;;;;9.20;5.80;;;11.70;94.90;;;;;;5053111;28;20033;-73
2021/05/13 03:37:48;;;;;;;10.50;6.07;;;11.80;94.90;;;;;;5053012;28;20175;-73
2021/05/13 03:40:14;;;;;;;12.18;6.43;;;11.80;93.40;;;;;;5053007;28;20025;-73
2021/05/13 03:42:40;;;;;;;11.27;6.00;;;12.00;92.10;;;;;;5051750;28;20386;-73
2021/05/13 03:45:06;;;;;;;7.95;5.13;;;12.10;90.30;;;;;;5052973;28;20509;-73
2021/05/13 03:47:32;;;;;;;13.57;6.15;;;12.20;88.60;;;;;;5051559;28;20033;-74
2021/05/13 03:49:57;;;;;;;7.10;5.38;;;12.30;86.80;;;;;;5052798;28;20524;-74
2021/05/13 03:52:23;;;;;;;10.20;5.60;;;12.40;86.00;;;;;;5051538;28;20025;-73
2021/05/13 03:54:48;;;;;;;7.55;4.93;;;12.50;84.50;;;;;;5052814;28;20450;-73
2021/05/13 03:57:14;;;;;;;9.02;5.20;;;12.60;83.50;;;;;;5051489;28;20028;-73
2021/05/13 03:59:41;;;;;;;9.00;5.30;;;12.70;82.50;;;;;;5052805;28;20048;-74
2021/05/13 04:04:33;;;;;;;6.35;5.03;;;12.80;80.80;;;;;;5053053;28;20107;-73
2021/05/13 04:06:59;;;;;;;8.55;4.93;;;12.90;80.00;;;;;;5051516;28;20032;-72
2021/05/13 04:09:25;;;;;;;8.02;5.10;;;13.00;79.00;;;;;;5052626;28;20028;-73
2021/05/13 04:11:52;;;;;;;7.78;6.68;;;13.00;77.50;;;;;;5064756;28;20083;-74
2021/05/13 04:14:20;;;;;;;10.10;5.07;;;13.10;78.30;;;;;;5072741;28;20470;-73
2021/05/13 04:16:51;;;;;;;8.75;5.72;;;13.10;77.50;;;;;;5072692;28;20028;-73
2021/05/13 04:19:18;;;;;;;9.07;4.45;;;13.10;77.50;;;;;;5071449;28;20019;-73
2021/05/13 04:21:44;;;;;;;7.63;4.72;;;13.10;76.30;;;;;;5072693;28;20016;-74
2021/05/13 04:24:11;;;;;;;7.13;4.68;;;13.20;76.50;;;;;;5072544;28;20056;-73
2021/05/13 04:26:39;;;;;;;7.45;4.32;;;13.20;74.50;;;;;;5072606;28;20154;-74
2021/05/13 04:29:05;;;;;;;5.63;5.00;;;13.20;75.20;;;;;;5072062;28;20056;-72
2021/05/13 04:31:31;;;;;;;6.55;4.68;;;13.20;74.40;;;;;;5072440;28;20068;-74
2021/05/13 04:33:57;;;;;;;6.13;4.32;;;13.20;73.30;;;;;;5071246;28;20066;-73
2021/05/13 04:36:22;;;;;;;5.43;4.30;;;13.20;73.40;;;;;;5070609;28;20048;-74
2021/05/13 04:38:48;;;;;;;6.85;3.85;;;13.20;72.90;;;;;;5070309;28;20028;-73
2021/05/13 04:41:14;;;;;;;9.27;4.57;;;13.30;73.10;;;;;;5070402;28;20023;-73
2021/05/13 04:43:39;;;;;;;9.98;4.65;;;13.40;71.90;;;;;;5072973;28;20074;-73
2021/05/13 04:46:07;;;;;;;6.47;4.70;;;13.50;72.30;;;;;;5074279;28;20031;-73
2021/05/13 04:51:18;;;;;;;5.97;4.15;;;13.50;71.90;;;;;;5074209;28;20037;-73
2021/05/13 04:53:45;;;;;;;8.07;4.45;;;13.60;70.70;;;;;;5075172;28;20396;-73
2021/05/13 04:56:11;;;;;;;5.68;4.38;;;13.60;69.90;;;;;;5067886;28;20020;-73
2021/05/13 04:58:37;;;;;;;7.00;5.25;;;13.60;70.00;;;;;;5066840;28;20379;-73
2021/05/13 05:01:02;;;;;;;7.75;4.32;;;13.60;70.20;;;;;;5070079;28;20409;-74
2021/05/13 05:03:28;;;;;;;6.32;4.57;;;13.70;69.70;;;;;;5075088;28;20036;-73
2021/05/13 05:05:54;;;;;;;6.18;4.22;;;13.60;70.00;;;;;;5075969;28;20048;-73
2021/05/13 05:08:19;;;;;;;8.70;4.18;;;13.70;69.20;;;;;;5069463;28;20055;-73
2021/05/13 05:10:46;;;;;;;7.82;5.07;;;13.70;70.60;;;;;;5073508;28;20059;-74
2021/05/13 05:13:12;;;;;;;6.47;3.67;;;13.80;70.90;;;;;;5075686;28;20020;-72
2021/05/13 05:15:37;;;;;;;5.88;4.50;;;13.80;69.60;;;;;;5075625;28;20012;-73
2021/05/13 05:18:03;;;;;;;10.23;4.45;;;13.60;69.70;;;;;;5075544;28;20426;-72
2021/05/13 05:20:29;;;;;;;5.20;4.00;;;13.60;70.70;;;;;;5067193;28;20056;-74
2021/05/13 05:22:54;;;;;;;7.72;4.55;;;13.80;71.10;;;;;;5063424;28;20112;-73
2021/05/13 05:25:20;;;;;;;5.80;4.18;;;13.90;71.40;;;;;;5059793;28;20025;-73
2021/05/13 05:27:45;;;;;;;7.50;4.07;;;14.00;68.60;;;;;;5056634;28;20087;-73
2021/05/13 05:30:12;;;;;;;6.38;4.38;;;14.10;68.70;;;;;;5070421;28;20047;-74
2021/05/13 05:32:37;;;;;;;8.45;4.53;;;14.20;69.10;;;;;;5074935;28;20093;-73
2021/05/13 05:35:04;;;;;;;5.43;4.30;;;14.30;69.20;;;;;;5074560;28;20470;-73
2021/05/13 05:37:32;;;;;;;6.13;4.20;;;14.40;68.00;;;;;;5073708;28;20021;-72
2021/05/13 05:39:58;;;;;;;9.05;4.05;;;14.50;67.30;;;;;;5073982;28;20036;-72
2021/05/13 05:42:24;;;;;;;5.78;3.90;;;14.70;67.40;;;;;;5069812;28;20032;-73
2021/05/13 05:44:51;;;;;;;6.03;4.50;;;14.80;66.00;;;;;;5061145;28;20021;-73
2021/05/13 05:47:17;;;;;;;6.95;4.20;;;14.80;64.90;;;;;;5073020;28;20028;-73
2021/05/13 05:49:43;;;;;;;7.18;3.88;;;14.90;64.30;;;;;;5073747;28;20032;-73
2021/05/13 05:52:09;;;;;;;4.90;4.00;;;14.80;64.40;;;;;;5070424;28;20398;-73
2021/05/13 05:54:35;;;;;;;9.32;4.85;;;14.80;64.80;;;;;;5071506;28;20100;-73
2021/05/13 05:57:00;;;;;;;10.63;4.95;;;14.90;65.00;;;;;;5071948;28;20478;-72
2021/05/13 05:59:26;;;;;;;6.68;4.30;;;15.00;64.60;;;;;;5070325;28;20028;-74
2021/05/13 06:01:51;;;;;;;6.63;4.05;;;15.00;63.20;;;;;;5066284;28;20527;-73
2021/05/13 06:04:17;;;;;;;9.88;4.40;;;15.10;63.40;;;;;;5052071;28;20028;-73
2021/05/13 06:06:43;;;;;;;6.50;4.38;;;15.20;63.50;;;;;;5056726;28;20033;-73
2021/05/13 06:09:09;;;;;;;4.00;3.60;;;15.30;63.40;;;;;;5067323;28;20039;-73
2021/05/13 06:11:35;;;;;;;9.07;4.10;;;15.40;62.80;;;;;;5062879;28;20108;-73
2021/05/13 06:14:02;;;;;;;4.82;3.63;;;15.40;62.70;;;;;;5063290;28;20120;-73
2021/05/13 06:16:28;;;;;;;4.85;3.70;;;15.40;62.60;;;;;;5067743;28;20102;-72
2021/05/13 06:18:58;;;;;;;8.30;3.88;;;15.50;62.50;;;;;;5071402;28;20436;-73
2021/05/13 06:21:25;;;;;;;6.80;3.90;;;15.60;62.20;;;;;;5072694;28;20235;-73
2021/05/13 06:23:53;;;;;;;5.28;3.22;;;15.60;61.30;;;;;;5071296;28;20030;-73
2021/05/13 06:26:25;;;;;;;11.50;4.50;;;15.80;61.60;;;;;;5071159;28;20020;-72
2021/05/13 06:28:51;;;;;;;8.00;4.03;;;15.80;61.80;;;;;;5071888;28;20032;-73
2021/05/13 06:31:17;;;;;;;3.97;3.58;;;16.00;60.50;;;;;;5068733;28;20491;-73
2021/05/13 06:33:43;;;;;;;9.60;4.20;;;16.00;60.50;;;;;;5070756;28;20017;-73
2021/05/13 06:36:09;;;;;;;5.25;3.83;;;15.90;60.60;;;;;;5072616;28;20074;-74
2021/05/13 06:38:34;;;;;;;4.93;3.67;;;16.10;61.10;;;;;;5071499;28;20020;-73
2021/05/13 06:41:01;;;;;;;6.28;4.05;;;16.20;61.40;;;;;;5071541;28;20029;-74
2021/05/13 06:43:27;;;;;;;6.53;3.75;;;16.30;60.50;;;;;;5071779;28;20029;-73
2021/05/13 06:45:53;;;;;;;6.47;4.13;;;16.40;59.30;;;;;;5071751;28;20104;-73
2021/05/13 06:48:18;;;;;;;7.05;4.47;;;16.40;59.70;;;;;;5073012;28;20029;-73
2021/05/13 06:50:44;;;;;;;7.57;4.68;;;16.40;59.90;;;;;;5073071;28;20501;-73
2021/05/13 06:53:09;;;;;;;7.50;4.50;;;16.40;60.00;;;;;;5073010;28;20031;-72
2021/05/13 06:55:35;;;;;;;7.10;3.90;;;16.50;59.90;;;;;;5072706;28;20023;-74
2021/05/13 06:58:01;;;;;;;4.35;3.95;;;16.50;59.40;;;;;;5067111;28;20029;-73
2021/05/13 07:00:27;;;;;;;4.43;4.03;;;16.50;59.50;;;;;;5066524;28;20086;-73
2021/05/13 07:02:53;;;;;;;4.10;3.53;;;16.60;59.50;;;;;;5072669;28;20052;-73
2021/05/13 07:05:21;;;;;;;5.63;4.25;;;16.70;60.50;;;;;;5072019;28;20036;-73
2021/05/13 07:07:47;;;;;;;6.28;4.32;;;16.80;59.30;;;;;;5071527;28;20028;-76
2021/05/13 07:10:12;;;;;;;9.45;4.70;;;17.00;58.50;;;;;;5072470;28;20039;-76
2021/05/13 07:12:39;;;;;;;6.03;4.05;;;17.20;58.70;;;;;;5072424;28;20024;-77
2021/05/13 07:15:05;;;;;;;5.35;4.43;;;17.30;58.70;;;;;;5071347;28;20167;-76
2021/05/13 07:17:31;;;;;;;9.57;4.80;;;17.60;58.00;;;;;;5070934;28;20078;-76
2021/05/13 07:19:57;;;;;;;7.85;4.30;;;17.70;57.30;;;;;;5069936;28;20501;-77
2021/05/13 07:22:23;;;;;;;6.38;4.30;;;17.90;57.20;;;;;;5072359;28;20481;-78
2021/05/13 07:24:48;;;;;;;6.68;4.10;;;18.10;56.90;;;;;;5071205;28;20108;-77
2021/05/13 07:27:14;;;;;;;7.03;4.45;;;18.20;56.40;;;;;;5072404;28;20047;-77
2021/05/13 07:29:40;;;;;;;7.50;3.88;;;17.90;56.90;;;;;;5070976;28;20074;-77
2021/05/13 07:32:06;;;;;;;4.45;3.72;;;18.10;56.90;;;;;;5071231;28;20024;-77
2021/05/13 07:34:33;;;;;;;7.90;4.10;;;18.30;56.70;;;;;;5070911;28;20025;-77
2021/05/13 07:36:58;;;;;;;9.27;4.28;;;18.30;55.80;;;;;;5072163;28;20096;-77
2021/05/13 07:39:25;;;;;;;5.65;4.00;;;18.50;56.20;;;;;;5072073;28;20086;-77
2021/05/13 07:41:51;;;;;;;5.65;4.53;;;18.60;55.90;;;;;;5071168;28;20032;-76
2021/05/13 07:44:16;;;;;;;5.40;4.57;;;18.60;55.60;;;;;;5072526;28;20652;-76
2021/05/13 07:46:42;;;;;;;7.28;4.35;;;18.60;56.40;;;;;;5071150;28;20032;-76
2021/05/13 07:49:09;;;;;;;8.63;4.80;;;18.60;56.00;;;;;;5070863;28;20471;-77
2021/05/13 07:51:35;;;;;;;6.55;3.53;;;18.60;55.50;;;;;;5070826;28;20036;-76
2021/05/13 07:54:02;;;;;;;5.30;4.10;;;18.80;55.30;;;;;;5072230;28;20451;-76
2021/05/13 07:56:27;;;;;;;6.75;5.20;;;18.80;55.10;;;;;;5071995;28;20016;-77
2021/05/13 07:58:53;;;;;;;12.02;4.80;;;18.80;54.90;;;;;;5072002;28;20561;-77
2021/05/13 08:01:19;;;;;;;10.80;4.97;;;18.80;55.30;;;;;;5071914;28;20024;-77
2021/05/13 08:03:44;;;;;;;7.50;4.20;;;18.80;55.60;;;;;;5070690;28;20056;-77
2021/05/13 08:06:11;;;;;;;6.75;5.07;;;19.00;55.00;;;;;;5072022;28;20033;-77
2021/05/13 08:08:37;;;;;;;6.85;4.90;;;18.90;55.20;;;;;;5071870;28;20029;-77
2021/05/13 08:11:03;;;;;;;5.18;4.00;;;18.90;54.50;;;;;;5071959;28;20078;-77
2021/05/13 08:13:30;;;;;;;9.80;3.95;;;19.20;54.90;;;;;;5070620;28;20402;-77
2021/05/13 08:15:56;;;;;;;6.40;3.90;;;19.20;54.50;;;;;;5070787;28;20016;-77
2021/05/13 08:18:22;;;;;;;9.18;4.70;;;19.40;54.20;;;;;;5073875;28;20478;-77
2021/05/13 08:20:47;;;;;;;6.68;4.00;;;19.50;53.50;;;;;;5075418;28;20077;-77
2021/05/13 08:23:13;;;;;;;7.75;3.85;;;19.70;52.80;;;;;;5074731;28;20028;-77
2021/05/13 08:25:39;;;;;;;6.35;3.88;;;19.80;53.20;;;;;;5074579;28;20107;-77
2021/05/13 08:28:05;;;;;;;6.50;4.18;;;19.60;52.60;;;;;;5075883;28;20492;-76
2021/05/13 08:30:31;;;;;;;7.80;4.30;;;19.50;53.70;;;;;;5075620;28;20039;-76
2021/05/13 08:32:56;;;;;;;6.20;4.15;;;19.60;52.60;;;;;;5075952;28;20051;-77
2021/05/13 08:35:22;;;;;;;5.60;4.00;;;19.60;52.30;;;;;;5073534;28;20104;-76
2021/05/13 08:37:47;;;;;;;5.47;4.40;;;19.80;54.10;;;;;;5074367;28;20428;-76
2021/05/13 08:40:14;;;;;;;8.35;4.20;;;19.50;52.90;;;;;;5074350;28;20024;-77
2021/05/13 08:42:40;;;;;;;6.78;4.00;;;19.70;53.50;;;;;;5074338;28;20068;-76
2021/05/13 08:45:06;;;;;;;7.90;4.85;;;19.80;53.70;;;;;;5075498;28;20146;-77
2021/05/13 08:47:32;;;;;;;5.57;4.25;;;19.80;53.40;;;;;;5072698;28;20397;-77
2021/05/13 08:50:02;;;;;;;4.95;3.90;;;19.90;52.90;;;;;;5075415;28;20037;-77
2021/05/13 08:52:27;;;;;;;4.88;3.90;;;20.10;52.70;;;;;;5075350;28;20032;-76
2021/05/13 08:54:55;;;;;;;7.00;3.78;;;20.30;53.30;;;;;;5074983;28;20028;-76
2021/05/13 08:57:21;;;;;;;6.68;4.10;;;20.30;52.90;;;;;;5073796;28;20379;-77
2021/05/13 08:59:48;;;;;;;8.07;4.07;;;20.30;52.40;;;;;;5075007;28;20017;-77
2021/05/13 09:02:15;;;;;;;8.18;4.63;;;20.40;53.80;;;;;;5073947;28;20028;-77
2021/05/13 09:04:45;;;;;;;6.90;4.13;;;20.30;52.30;;;;;;5073731;28;20517;-77
2021/05/13 09:07:22;;;;;;;8.90;4.47;;;20.40;52.60;;;;;;5074075;28;20033;-77
2021/05/13 09:10:08;;;;;;;6.57;3.67;;;20.60;52.90;;;;;;5072461;28;20055;-77
2021/05/13 09:12:34;;;;;;;12.82;4.55;;;20.70;52.60;;;;;;5075167;28;20027;-78
2021/05/13 09:15:06;;;;;;;6.25;5.13;;;20.50;52.10;;;;;;5073698;28;20474;-78
2021/05/13 09:17:32;;;;;;;9.90;4.38;;;20.50;52.90;;;;;;5074152;28;20063;-78
2021/05/13 09:20:00;;;;;;;8.18;4.40;;;20.20;53.60;;;;;;5071758;28;20020;-78
2021/05/13 09:22:27;;;;;;;5.90;4.10;;;20.30;53.10;;;;;;5073548;28;20020;-78
2021/05/13 09:24:59;;;;;;;6.57;3.92;;;20.50;52.90;;;;;;5074868;28;20073;-77
2021/05/13 09:27:41;;;;;;;7.28;4.30;;;20.70;52.10;;;;;;5074734;28;20063;-79
2021/05/13 09:30:15;;;;;;;5.80;4.18;;;20.90;51.90;;;;;;5073439;28;20028;-78
2021/05/13 09:32:46;;;;;;;8.05;4.88;;;21.00;51.20;;;;;;5070843;28;20028;-78
2021/05/13 09:35:19;;;;;;;5.10;4.03;;;20.90;51.40;;;;;;5069131;28;20024;-78
2021/05/13 09:37:51;;;;;;;7.60;3.88;;;20.80;50.20;;;;;;5074858;28;20020;-78
2021/05/13 09:40:32;;;;;;;10.43;3.67;;;21.10;50.50;;;;;;5074603;28;20031;-79
2021/05/13 09:43:16;;;;;;;7.35;4.45;;;21.20;51.30;;;;;;5071826;28;20020;-78
2021/05/13 09:46:03;;;;;;;7.32;4.80;;;21.10;51.00;;;;;;5074280;28;20033;-78
2021/05/13 09:48:39;;;;;;;7.18;4.80;;;21.20;50.20;;;;;;5074343;28;20070;-79
2021/05/13 09:51:18;;;;;;;7.05;4.28;;;21.40;50.00;;;;;;5074098;28;20043;-79
2021/05/13 09:53:48;;;;;;;8.23;4.82;;;21.30;51.20;;;;;;5071776;28;20055;-78
2021/05/13 09:56:28;;;;;;;7.95;4.03;;;21.30;51.20;;;;;;5074289;28;20021;-79
2021/05/13 09:58:54;;;;;;;6.97;4.90;;;21.20;50.60;;;;;;5072816;28;20100;-78
2021/05/13 10:01:20;;;;;;;9.82;4.15;;;21.30;48.40;;;;;;5072969;28;20055;-78
2021/05/13 10:03:46;;;;;;;5.25;4.10;;;21.40;49.80;;;;;;5073031;28;20028;-79
2021/05/13 10:06:12;;;;;;;4.82;4.43;;;21.30;50.40;;;;;;5074635;28;20607;-79
2021/05/13 10:08:41;;;;;;;6.28;4.60;;;21.40;50.70;;;;;;5072703;28;20095;-79
2021/05/13 10:11:08;;;;;;;7.28;4.03;;;21.70;52.20;;;;;;5073797;28;20032;-78
2021/05/13 10:13:34;;;;;;;6.93;4.93;;;21.70;49.90;;;;;;5073600;28;20016;-78
2021/05/13 10:16:01;;;;;;;7.95;4.40;;;21.60;48.60;;;;;;5072877;28;20070;-78
2021/05/13 10:18:51;;;;;;;7.43;4.50;;;21.80;48.50;;;;;;5073575;28;20428;-78
2021/05/13 10:21:25;;;;;;;10.43;4.28;;;21.80;48.90;;;;;;5072310;28;20030;-78
2021/05/13 10:23:53;;;;;;;7.40;4.15;;;21.80;49.30;;;;;;5073597;28;20021;-78
2021/05/13 10:26:40;;;;;;;8.32;4.70;;;21.80;49.40;;;;;;5072708;28;20116;-78
2021/05/13 10:29:21;;;;;;;5.63;3.90;;;21.80;49.90;;;;;;5073278;28;20145;-79
2021/05/13 10:31:59;;;;;;;8.18;4.68;;;21.80;49.30;;;;;;5073397;28;20055;-78
2021/05/13 10:34:40;;;;;;;6.90;4.38;;;21.80;49.90;;;;;;5073426;28;20056;-79
2021/05/13 10:37:09;;;;;;;5.43;4.78;;;21.70;49.30;;;;;;5069425;28;20021;-78
2021/05/13 10:39:35;;;;;;;6.95;4.25;;;21.80;48.80;;;;;;5071354;28;20386;-78
2021/05/13 10:42:30;;;;;;;11.10;4.50;;;21.80;48.50;;;;;;5072748;28;20043;-78
2021/05/13 10:44:56;;;;;;;5.05;4.20;;;21.80;48.90;;;;;;5073242;28;20076;-79
2021/05/13 10:47:30;;;;;;;6.68;4.47;;;21.80;49.60;;;;;;5071714;28;20024;-79
2021/05/13 10:49:57;;;;;;;4.57;4.00;;;21.80;50.10;;;;;;5072956;28;20036;-79
2021/05/13 10:52:38;;;;;;;6.30;4.75;;;21.90;50.30;;;;;;5071703;28;20017;-79
2021/05/13 10:55:07;;;;;;;10.70;4.80;;;22.00;50.90;;;;;;5073267;28;20029;-79
2021/05/13 10:57:47;;;;;;;6.85;4.00;;;22.00;50.90;;;;;;5068817;28;20040;-79
2021/05/13 11:00:15;;;;;;;5.25;4.30;;;22.10;51.10;;;;;;5072108;28;20580;-78
2021/05/13 11:02:46;;;;;;;5.90;3.90;;;22.00;51.20;;;;;;5072834;28;20074;-78
2021/05/13 11:05:38;;;;;;;8.65;4.40;;;22.10;51.60;;;;;;5071552;28;20119;-79
2021/05/13 11:08:04;;;;;;;6.75;3.85;;;22.10;50.50;;;;;;5072763;28;20027;-78
2021/05/13 11:10:48;;;;;;;15.75;5.22;;;22.20;50.40;;;;;;5071295;28;20068;-78
2021/05/13 11:13:15;;;;;;;7.38;4.15;;;22.30;51.00;;;;;;5072792;28;20028;-79
2021/05/13 11:15:43;;;;;;;4.82;3.60;;;22.40;49.60;;;;;;5072767;28;20233;-78
2021/05/13 11:18:12;;;;;;;6.80;4.00;;;22.20;49.30;;;;;;5072693;28;20028;-78
2021/05/13 11:20:38;;;;;;;5.97;4.03;;;22.30;51.10;;;;;;5071430;28;20055;-79
2021/05/13 11:23:17;;;;;;;12.95;4.32;;;22.10;50.70;;;;;;5072438;28;20040;-79
2021/05/13 11:26:02;;;;;;;6.32;3.50;;;22.30;50.70;;;;;;5072683;28;20441;-78
2021/05/13 11:28:41;;;;;;;4.35;3.85;;;22.50;50.90;;;;;;5072458;28;20056;-78
2021/05/13 11:31:07;;;;;;;3.85;3.47;;;22.60;50.10;;;;;;5071400;28;20052;-78
2021/05/13 11:33:50;;;;;;;7.45;4.82;;;22.60;49.70;;;;;;5071955;28;20024;-78
2021/05/13 11:36:17;;;;;;;6.40;3.90;;;22.40;49.70;;;;;;5072573;28;20454;-78
2021/05/13 11:38:43;;;;;;;5.30;4.30;;;22.50;50.20;;;;;;5071182;28;20469;-79
2021/05/13 11:41:10;;;;;;;11.43;4.53;;;22.40;49.50;;;;;;5072135;28;20508;-79
2021/05/13 11:43:39;;;;;;;6.63;3.95;;;22.30;48.60;;;;;;5070894;28;20066;-79
2021/05/13 11:46:09;;;;;;;5.32;4.00;;;22.30;48.80;;;;;;5070971;28;20031;-78
2021/05/13 11:48:40;;;;;;;4.95;3.70;;;22.40;48.60;;;;;;5070985;28;20123;-78
2021/05/13 11:51:14;;;;;;;4.85;3.60;;;22.40;47.50;;;;;;5071850;28;20094;-79
2021/05/13 11:53:43;;;;;;;5.13;3.42;;;22.10;46.00;;;;;;5071057;28;20028;-79
2021/05/13 11:56:10;;;;;;;8.82;4.15;;;22.10;46.30;;;;;;5070767;28;20120;-78
2021/05/13 11:58:41;;;;;;;5.30;4.07;;;22.10;48.40;;;;;;5072072;28;20028;-78
2021/05/13 12:01:20;;;;;;;5.55;3.90;;;22.10;49.00;;;;;;5070690;28;20441;-78
2021/05/13 12:04:16;;;;;;;7.10;3.97;;;22.30;49.90;;;;;;5070304;28;20078;-78
2021/05/13 12:07:11;;;;;;;7.38;3.90;;;22.50;49.10;;;;;;5071952;28;20474;-78
2021/05/13 12:09:39;;;;;;;7.75;3.83;;;22.70;48.80;;;;;;5071469;28;20037;-79
2021/05/13 12:12:05;;;;;;;9.32;3.80;;;22.70;46.50;;;;;;5071907;28;20021;-79
2021/05/13 12:14:32;;;;;;;8.10;3.88;;;22.90;47.40;;;;;;5070601;28;20112;-78
2021/05/13 12:17:03;;;;;;;4.88;4.00;;;22.90;47.20;;;;;;5067915;28;20066;-79
2021/05/13 12:19:34;;;;;;;5.35;3.97;;;22.80;46.10;;;;;;5071766;28;20028;-79
2021/05/13 12:22:06;;;;;;;10.27;5.35;;;22.60;46.20;;;;;;5066654;28;20052;-78
2021/05/13 12:24:37;;;;;;;6.70;4.00;;;22.60;46.40;;;;;;5068422;28;20031;-78
2021/05/13 12:27:04;;;;;;;4.75;3.95;;;22.70;46.40;;;;;;5069415;28;20174;-79
2021/05/13 12:29:30;;;;;;;4.32;3.90;;;22.70;44.80;;;;;;5069513;28;20398;-79
2021/05/13 12:31:56;;;;;;;6.80;4.18;;;22.80;43.70;;;;;;5070484;28;20032;-79
2021/05/13 12:34:42;;;;;;;9.40;4.55;;;22.70;45.10;;;;;;5067577;28;20019;-78
2021/05/13 12:37:18;;;;;;;8.82;4.68;;;22.70;46.00;;;;;;5070347;28;20035;-78
2021/05/13 12:39:44;;;;;;;21.33;5.13;;;22.70;46.00;;;;;;5071752;28;20017;-78
2021/05/13 12:42:27;;;;;;;19.15;4.88;;;22.80;45.90;;;;;;5070985;28;20024;-79
2021/05/13 12:45:17;;;;;;;4.10;3.80;;;22.80;45.00;;;;;;5071587;28;20028;-79
2021/05/13 12:47:44;;;;;;;6.07;3.88;;;22.70;44.60;;;;;;5069874;28;20028;-78
2021/05/13 12:50:11;;;;;;;6.90;4.32;;;22.60;44.00;;;;;;5069976;28;20033;-79
2021/05/13 12:52:36;;;;;;;5.10;3.95;;;22.80;46.00;;;;;;5071435;28;20021;-78
2021/05/13 12:55:16;;;;;;;7.85;4.00;;;22.70;45.40;;;;;;5071434;28;20100;-78
2021/05/13 12:57:44;;;;;;;5.20;4.20;;;22.70;45.40;;;;;;5070637;28;20012;-78
2021/05/13 13:00:10;;;;;;;4.63;3.58;;;22.30;44.10;;;;;;5070176;28;20013;-78
2021/05/13 13:02:37;;;;;;;6.45;3.85;;;22.10;44.90;;;;;;5065618;28;20050;-79